createdAt,value
2023-05-15T00:00:06.434Z,100217.53
2023-05-15T00:05:03.063Z,100208.09
2023-05-15T00:09:59.591Z,100204.47
2023-05-15T00:14:55.909Z,100209.53
2023-05-15T00:19:57.525Z,100197.22
2023-05-15T00:24:53.974Z,100191.88
2023-05-15T00:29:50.400Z,100179.91
2023-05-15T00:34:46.700Z,100175.94
2023-05-15T00:39:43.023Z,100167.19
2023-05-15T00:44:40.222Z,100166.69
2023-05-15T00:49:37.830Z,100166.50
2023-05-15T00:54:35.269Z,100163.69
2023-05-15T00:59:32.690Z,100162.25
2023-05-15T01:04:29.029Z,100148.56
2023-05-15T01:09:27.408Z,100139.19
2023-05-15T01:14:23.739Z,100143.03
2023-05-15T01:19:20.401Z,100133.91
2023-05-15T01:24:47.339Z,100141.28
2023-05-15T01:30:11.794Z,100141.88
2023-05-15T01:35:33.395Z,100135.28
2023-05-15T01:40:29.945Z,100126.81
2023-05-15T01:45:29.243Z,100124.09
2023-05-15T01:50:27.616Z,100119.47
2023-05-15T01:55:25.705Z,100115.63
2023-05-15T02:00:22.726Z,100113.88
2023-05-15T02:05:19.264Z,100125.34
2023-05-15T02:10:17.508Z,100123.06
2023-05-15T02:15:14.308Z,100113.03
2023-05-15T02:20:11.404Z,100111.88
2023-05-15T02:25:08.236Z,100114.38
2023-05-15T02:30:20.385Z,100109.50
2023-05-15T02:35:39.498Z,100118.25
2023-05-15T02:40:37.383Z,100124.34
2023-05-15T02:45:34.421Z,100125.91
2023-05-15T02:50:30.976Z,100131.84
2023-05-15T02:55:27.623Z,100130.56
2023-05-15T03:00:24.121Z,100130.38
2023-05-15T03:05:20.996Z,100136.66
2023-05-15T03:10:17.378Z,100135.59
2023-05-15T03:15:13.665Z,100134.34
2023-05-15T03:20:11.400Z,100132.75
2023-05-15T03:25:10.871Z,100137.84
2023-05-15T03:30:07.847Z,100130.66
2023-05-15T03:35:04.940Z,100130.44
2023-05-15T03:40:01.350Z,100137.22
2023-05-15T03:44:57.683Z,100139.22
2023-05-15T03:49:53.968Z,100142.91
2023-05-15T03:54:50.493Z,100140.81
2023-05-15T03:59:46.774Z,100141.44
2023-05-15T04:04:44.526Z,100142.28
2023-05-15T04:09:41.285Z,100145.88
2023-05-15T04:14:37.980Z,100140.34
2023-05-15T04:19:34.299Z,100136.53
2023-05-15T04:24:30.608Z,100134.00
2023-05-15T04:29:26.890Z,100137.28
2023-05-15T04:34:23.189Z,100140.38
2023-05-15T04:39:19.848Z,100141.91
2023-05-15T04:44:16.287Z,100137.72
2023-05-15T04:49:12.657Z,100128.19
2023-05-15T04:54:09.161Z,100133.34
2023-05-15T04:59:05.609Z,100134.19
2023-05-15T05:04:02.016Z,100133.84
2023-05-15T05:08:58.376Z,100133.38
2023-05-15T05:13:54.885Z,100132.44
2023-05-15T05:18:51.319Z,100141.03
2023-05-15T05:23:47.669Z,100148.19
2023-05-15T05:28:44.163Z,100158.03
2023-05-15T05:33:40.789Z,100165.50
2023-05-15T05:38:37.917Z,100164.72
2023-05-15T05:43:34.259Z,100175.34
2023-05-15T05:48:30.847Z,100160.00
2023-05-15T05:53:27.254Z,100141.09
2023-05-15T05:58:26.049Z,100126.75
2023-05-15T06:03:23.279Z,100099.16
2023-05-15T06:08:20.310Z,100083.34
2023-05-15T06:13:16.715Z,100078.94
2023-05-15T06:18:13.395Z,100060.28
2023-05-15T06:23:10.033Z,100036.63
2023-05-15T06:28:06.411Z,100033.00
2023-05-15T06:33:02.854Z,100027.41
2023-05-15T06:37:59.464Z,100008.53
2023-05-15T06:42:55.831Z,100010.66
2023-05-15T06:47:52.268Z,100016.34
2023-05-15T06:52:48.799Z,100018.53
2023-05-15T06:57:45.371Z,100026.47
2023-05-15T07:02:41.796Z,100019.94
2023-05-15T07:07:38.367Z,100019.38
2023-05-15T07:12:34.883Z,100022.06
2023-05-15T07:17:33.571Z,100011.03
2023-05-15T07:22:31.434Z,100009.41
2023-05-15T07:27:29.079Z,100014.38
2023-05-15T07:32:25.476Z,100004.16
2023-05-15T07:37:23.219Z,100005.63
2023-05-15T07:42:19.543Z,100005.09
2023-05-15T07:47:15.956Z,99999.94
2023-05-15T07:52:12.450Z,99995.22
2023-05-15T07:57:09.252Z,100001.81
2023-05-15T08:02:05.681Z,100005.28
2023-05-15T08:07:02.242Z,99998.53
2023-05-15T08:12:17.525Z,99994.06
2023-05-15T08:17:13.897Z,99991.16
2023-05-15T08:22:10.491Z,99985.56
2023-05-15T08:27:08.695Z,99979.22
2023-05-15T08:32:06.694Z,99987.97
2023-05-15T08:37:04.119Z,99990.19
2023-05-15T08:42:19.167Z,99981.72
2023-05-15T08:47:16.003Z,99980.34
2023-05-15T08:52:12.633Z,99974.66
2023-05-15T08:57:09.792Z,99977.75
2023-05-15T09:02:06.358Z,99977.06
2023-05-15T09:07:04.056Z,99976.94
2023-05-15T09:12:02.422Z,99973.75
2023-05-15T09:16:59.332Z,99971.59
2023-05-15T09:21:55.733Z,99975.84
2023-05-15T09:27:06.453Z,99976.00
2023-05-15T09:32:07.870Z,99978.59
2023-05-15T09:37:07.075Z,99981.03
2023-05-15T09:42:08.204Z,99972.47
2023-05-15T09:47:05.467Z,99970.97
2023-05-15T09:52:02.213Z,99964.28
2023-05-15T09:57:09.172Z,99968.47
2023-05-15T10:02:06.236Z,99958.59
2023-05-15T10:07:02.673Z,99963.09
2023-05-15T10:11:59.596Z,99948.28
2023-05-15T10:16:57.035Z,99949.41
2023-05-15T10:21:56.074Z,99952.63
2023-05-15T10:26:55.657Z,99946.16
2023-05-15T10:31:54.187Z,99950.63
2023-05-15T10:36:54.589Z,99946.06
2023-05-15T10:41:52.019Z,99958.75
2023-05-15T10:46:49.102Z,99947.94
2023-05-15T10:51:45.633Z,99949.59
2023-05-15T10:56:42.777Z,99951.81
2023-05-15T11:01:40.632Z,99949.59
2023-05-15T11:06:39.951Z,99946.50
2023-05-15T11:11:51.583Z,99937.31
2023-05-15T11:16:53.982Z,99934.56
2023-05-15T11:22:00.597Z,99926.06
2023-05-15T11:27:00.261Z,99929.72
2023-05-15T11:31:56.918Z,99922.03
2023-05-15T11:36:53.288Z,99913.28
2023-05-15T11:41:49.988Z,99906.38
2023-05-15T11:46:46.841Z,99908.69
2023-05-15T11:51:44.128Z,99902.72
2023-05-15T11:56:44.583Z,99904.81
2023-05-15T12:01:43.433Z,99891.28
2023-05-15T12:06:40.697Z,99901.56
2023-05-15T12:11:37.120Z,99895.66
2023-05-15T12:16:33.547Z,99893.47
2023-05-15T12:21:31.116Z,99890.56
2023-05-15T12:26:29.208Z,99880.16
2023-05-15T12:31:25.854Z,99877.63
2023-05-15T12:36:22.558Z,99877.63
2023-05-15T12:41:20.588Z,99884.25
2023-05-15T12:46:22.787Z,99869.44
2023-05-15T12:51:22.349Z,99882.19
2023-05-15T12:56:18.975Z,99873.44
2023-05-15T13:01:16.653Z,99873.28
2023-05-15T13:06:13.447Z,99870.03
2023-05-15T13:11:14.606Z,99877.91
2023-05-15T13:16:25.680Z,99865.66
2023-05-15T13:21:22.138Z,99876.44
2023-05-15T13:26:18.876Z,99883.13
2023-05-15T13:31:15.459Z,99879.00
2023-05-15T13:36:12.269Z,99887.06
2023-05-15T13:41:11.982Z,99875.13
2023-05-15T13:46:09.042Z,99890.41
2023-05-15T13:51:06.922Z,99885.03
2023-05-15T13:56:03.605Z,99877.56
2023-05-15T14:01:03.366Z,99890.81
2023-05-15T14:06:00.144Z,99879.03
2023-05-15T14:10:57.022Z,99878.56
2023-05-15T14:15:53.874Z,99878.63
2023-05-15T14:20:50.877Z,99880.41
2023-05-15T14:25:47.660Z,99883.38
2023-05-15T14:30:44.039Z,99879.97
2023-05-15T14:35:40.501Z,99878.75
2023-05-15T14:40:36.980Z,99874.25
2023-05-15T14:45:33.649Z,99872.72
2023-05-15T14:50:30.834Z,99875.19
2023-05-15T14:55:28.108Z,99878.25
2023-05-15T15:00:24.672Z,99877.84
2023-05-15T15:05:22.133Z,99875.88
2023-05-15T15:10:18.456Z,99876.34
2023-05-15T15:15:14.814Z,99872.34
2023-05-15T15:20:11.766Z,99876.72
2023-05-15T15:25:08.848Z,99876.06
2023-05-15T15:30:06.552Z,99855.59
2023-05-15T15:35:04.849Z,99862.66
2023-05-15T15:40:09.806Z,99862.38
2023-05-15T15:45:06.949Z,99876.06
2023-05-15T15:50:04.696Z,99865.16
2023-05-15T15:55:01.359Z,99874.78
2023-05-15T15:59:58.267Z,99867.44
2023-05-15T16:04:55.058Z,99857.94
2023-05-15T16:10:03.778Z,99865.84
2023-05-15T16:15:21.746Z,99865.41
2023-05-15T16:20:19.681Z,99864.69
2023-05-15T16:25:16.234Z,99859.78
2023-05-15T16:30:14.226Z,99859.81
2023-05-15T16:35:13.823Z,99862.91
2023-05-15T16:40:10.912Z,99864.19
2023-05-15T16:45:07.927Z,99851.06
2023-05-15T16:50:05.760Z,99865.72
2023-05-15T16:55:02.121Z,99862.91
2023-05-15T16:59:58.465Z,99873.59
2023-05-15T17:04:55.155Z,99871.34
2023-05-15T17:09:51.850Z,99877.00
2023-05-15T17:14:48.258Z,99867.94
2023-05-15T17:19:44.898Z,99874.66
2023-05-15T17:24:50.704Z,99871.94
2023-05-15T17:29:48.065Z,99889.16
2023-05-15T17:34:45.419Z,99884.69
2023-05-15T17:39:42.132Z,99896.97
2023-05-15T17:44:38.639Z,99914.06
2023-05-15T17:49:35.035Z,99916.25
2023-05-15T17:54:31.401Z,99926.78
2023-05-15T17:59:27.822Z,99940.56
2023-05-15T18:04:24.436Z,99941.50
2023-05-15T18:09:24.267Z,99940.31
2023-05-15T18:14:21.065Z,99949.47
2023-05-15T18:19:18.004Z,99965.31
2023-05-15T18:24:14.634Z,99968.50
2023-05-15T18:29:11.116Z,99981.13
2023-05-15T18:34:07.484Z,100017.09
2023-05-15T18:39:05.369Z,100016.75
2023-05-15T18:44:01.854Z,100018.94
2023-05-15T18:48:58.220Z,100016.63
2023-05-15T18:53:54.719Z,100026.88
2023-05-15T18:58:51.082Z,100038.06
2023-05-15T19:03:47.442Z,100046.66
2023-05-15T19:08:43.937Z,100053.66
2023-05-15T19:13:40.334Z,100066.16
2023-05-15T19:18:36.893Z,100063.47
2023-05-15T19:23:33.274Z,100074.31
2023-05-15T19:28:29.603Z,100090.16
2023-05-15T19:33:25.969Z,100097.03
2023-05-15T19:38:22.528Z,100099.84
2023-05-15T19:43:18.860Z,100097.88
2023-05-15T19:48:15.335Z,100102.13
2023-05-15T19:53:12.246Z,100103.69
2023-05-15T19:58:08.736Z,100115.91
2023-05-15T20:03:05.311Z,100119.28
2023-05-15T20:08:01.692Z,100121.81
2023-05-15T20:12:58.098Z,100141.03
2023-05-15T20:17:55.221Z,100137.25
2023-05-15T20:22:51.636Z,100152.94
2023-05-15T20:27:47.964Z,100162.00
2023-05-15T20:32:44.703Z,100170.00
2023-05-15T20:37:42.814Z,100164.88
2023-05-15T20:42:39.727Z,100183.34
2023-05-15T20:47:36.291Z,100190.72
2023-05-15T20:52:32.652Z,100188.50
2023-05-15T20:57:29.041Z,100189.56
2023-05-15T21:02:25.511Z,100191.31
2023-05-15T21:07:21.850Z,100183.25
2023-05-15T21:12:18.189Z,100195.50
2023-05-15T21:17:14.880Z,100197.00
2023-05-15T21:22:11.393Z,100215.91
2023-05-15T21:27:07.840Z,100211.69
2023-05-15T21:32:05.667Z,100218.31
2023-05-15T21:37:02.049Z,100214.16
2023-05-15T21:41:58.438Z,100218.50
2023-05-15T21:46:55.247Z,100225.53
2023-05-15T21:51:51.595Z,100224.94
2023-05-15T21:56:48.068Z,100221.91
2023-05-15T22:01:44.534Z,100227.72
2023-05-15T22:06:41.056Z,100219.03
2023-05-15T22:11:37.431Z,100226.75
2023-05-15T22:16:34.034Z,100223.69
2023-05-15T22:21:31.992Z,100230.47
2023-05-15T22:26:28.321Z,100229.91
2023-05-15T22:31:24.974Z,100234.84
2023-05-15T22:36:21.344Z,100235.59
2023-05-15T22:41:18.081Z,100238.66
2023-05-15T22:46:16.026Z,100247.47
2023-05-15T22:51:12.408Z,100250.88
2023-05-15T22:56:08.763Z,100252.78
2023-05-15T23:01:05.240Z,100261.16
2023-05-15T23:06:02.054Z,100258.59
2023-05-15T23:10:58.429Z,100260.91
2023-05-15T23:15:55.046Z,100268.75
2023-05-15T23:20:51.542Z,100274.19
2023-05-15T23:25:47.909Z,100292.69
2023-05-15T23:30:44.258Z,100285.19
2023-05-15T23:35:40.601Z,100287.84
2023-05-15T23:40:37.081Z,100281.69
2023-05-15T23:45:33.563Z,100289.19
2023-05-15T23:50:29.949Z,100291.69
2023-05-15T23:55:26.323Z,100282.25
